Arrowsmith, IL (61722)

5:39 PM CST on January 26, 2015 (GMT -0600)
APRSWXNET Cooksville IL US | Change Station
CLOSE
Current Station
Personal Weather Station
Location: Cooksville, IL
Elevation: 130 ft
Nearby Weather Stations
Active Advisory: Special Statement

Elev 130 ft 40.51 °N, 88.72 °W | Updated 45 minutes ago

Overcast
Overcast
26 °F
Feels Like 18 °F
N
7
Wind Variable Wind from South
Gusts 11.0 mph

Today
High -- | Low -- °F
--% Chance of Precip.
Yesterday
High -- | Low -- °F
Precip. -- in
7:09 AM 5:05 PM
Waxing Crescent, 48% visible
Pressure 29.87 in
Visibility 1.0 miles
Clouds Overcast 400 ft
Windchill 18 °F
Dew Point 25 °F
Humidity 95%
Rainfall 0.00 in
Snow Depth Not available.
UV 0 out of 12
Pollen .10 out of 12
Air Quality Not available.
Flu Activity Not available.
SPECI KBMI 262300Z 18011KT 1SM R29/P6000FT BR OVC004 M02/M03 A2987 RMK AO2 CIG 002V008

More Conditions Fewer Conditions

Pressure 29.87 in
Visibility 1.0 miles
Clouds Overcast 400 ft
Windchill 18 °F
Dew Point 25 °F
Humidity 95%
Rainfall 0.00 in
Snow Depth Not available.
UV 0 out of 12
Pollen .10 out of 12
Air Quality Not available.
Flu Activity Not available.
SPECI KBMI 262300Z 18011KT 1SM R29/P6000FT BR OVC004 M02/M03 A2987 RMK AO2 CIG 002V008

More Conditions Fewer Conditions

10-Day Weather Forecast

Almanac

Astronomy

Jan. 26, 2015 Rise Set
Actual Time
Civil Twilight
Nautical Twilight
Astronomical Twilight
Moon
Length of Visible Light
Length of Day
Tomorrow will be .
, % of the Moon is Illuminated

Today's Extremes

State Highs State Lows

Community

WunderPhotos

Upload Photos

1,790,394 photos uploaded!

WunderBlogs® & News

Nearby

Air Quality

  Air Quality AQ Index Pollutant
Not available.

Snow Depth

Station Depth Elevation

Earthquake Activity

City Distance Mag. Time & Date
Minimum magnitude displayed is 2.5.

Coastal Water Temperatures

Place Temperature

Nearby Weather Stations